createdAt,value
2018-08-11T00:00:14.505Z,9.93
2018-08-11T00:02:49.460Z,10.17
2018-08-11T00:05:24.249Z,9.50
2018-08-11T00:07:59.042Z,10.20
2018-08-11T00:10:34.244Z,11.37
2018-08-11T00:13:09.149Z,12.67
2018-08-11T00:15:54.000Z,10.20
2018-08-11T00:18:28.533Z,9.47
2018-08-11T00:21:03.126Z,10.47
2018-08-11T00:23:38.365Z,10.33
2018-08-11T00:26:13.060Z,9.50
2018-08-11T00:28:48.517Z,9.10
2018-08-11T00:31:32.062Z,10.40
2018-08-11T00:34:08.122Z,9.50
2018-08-11T00:36:43.304Z,9.10
2018-08-11T00:39:18.213Z,9.17
2018-08-11T00:41:53.209Z,8.37
2018-08-11T00:44:28.805Z,8.50
2018-08-11T00:47:04.432Z,8.40
2018-08-11T00:49:39.326Z,7.93
2018-08-11T00:52:14.249Z,7.90
2018-08-11T00:54:48.837Z,7.07
2018-08-11T00:57:23.412Z,7.17
2018-08-11T00:59:58.261Z,6.80
2018-08-11T01:02:33.032Z,6.57
2018-08-11T01:05:09.728Z,8.57
2018-08-11T01:07:45.295Z,9.20
2018-08-11T01:10:20.480Z,7.03
2018-08-11T01:12:55.777Z,6.30
2018-08-11T01:15:30.374Z,6.50
2018-08-11T01:18:04.865Z,5.90
2018-08-11T01:20:39.766Z,5.43
2018-08-11T01:23:14.788Z,5.20
2018-08-11T01:25:49.551Z,4.90
2018-08-11T01:28:25.184Z,5.33
2018-08-11T01:31:00.640Z,4.73
2018-08-11T01:33:35.761Z,4.87
2018-08-11T01:36:10.869Z,5.40
2018-08-11T01:38:45.948Z,5.40
2018-08-11T01:41:20.229Z,5.07
2018-08-11T01:43:54.899Z,4.67
2018-08-11T01:46:30.379Z,4.83
2018-08-11T01:49:04.755Z,4.27
2018-08-11T01:51:39.635Z,4.63
2018-08-11T01:54:14.749Z,4.37
2018-08-11T01:56:49.287Z,4.67
2018-08-11T01:59:24.165Z,4.43
2018-08-11T02:01:58.704Z,4.10
2018-08-11T02:04:33.021Z,4.63
2018-08-11T02:07:07.826Z,3.97
2018-08-11T02:09:42.556Z,4.27
2018-08-11T02:12:17.152Z,3.93
2018-08-11T02:14:52.127Z,4.20
2018-08-11T02:17:26.943Z,5.27
2018-08-11T02:20:01.437Z,3.63
2018-08-11T02:22:36.229Z,3.57
2018-08-11T02:25:11.128Z,3.50
2018-08-11T02:27:45.808Z,3.67
2018-08-11T02:30:20.830Z,3.83
2018-08-11T02:32:55.732Z,3.23
2018-08-11T02:35:30.379Z,3.23
2018-08-11T02:38:05.128Z,3.40
2018-08-11T02:40:39.548Z,4.07
2018-08-11T02:43:13.981Z,3.97
2018-08-11T02:45:48.282Z,3.53
2018-08-11T02:48:22.600Z,3.20
2018-08-11T02:50:57.236Z,3.37
2018-08-11T02:53:31.612Z,3.00
2018-08-11T02:56:06.672Z,3.20
2018-08-11T02:58:40.998Z,3.73
2018-08-11T03:01:15.679Z,3.20
2018-08-11T03:03:50.024Z,3.63
2018-08-11T03:06:25.047Z,4.60
2018-08-11T03:08:59.572Z,3.00
2018-08-11T03:11:34.196Z,2.90
2018-08-11T03:14:09.344Z,2.83
2018-08-11T03:16:43.984Z,2.80
2018-08-11T03:19:19.747Z,2.73
2018-08-11T03:22:00.244Z,3.33
2018-08-11T03:24:35.189Z,2.83
2018-08-11T03:27:11.139Z,3.30
2018-08-11T03:29:46.404Z,4.13
2018-08-11T03:32:20.925Z,4.80
2018-08-11T03:34:55.975Z,4.03
2018-08-11T03:37:30.872Z,2.80
2018-08-11T03:40:07.044Z,4.43
2018-08-11T03:42:42.978Z,3.73
2018-08-11T03:45:17.240Z,5.00
2018-08-11T03:47:51.691Z,2.70
2018-08-11T03:50:25.951Z,4.50
2018-08-11T03:53:00.252Z,3.00
2018-08-11T03:55:34.908Z,2.63
2018-08-11T03:58:09.917Z,2.70
2018-08-11T04:00:44.640Z,2.90
2018-08-11T04:03:19.167Z,2.73
2018-08-11T04:05:54.333Z,2.53
2018-08-11T04:08:28.964Z,2.67
2018-08-11T04:11:03.543Z,2.70
2018-08-11T04:13:38.165Z,2.67
2018-08-11T04:16:12.655Z,3.93
2018-08-11T04:18:47.408Z,2.90
2018-08-11T04:21:22.115Z,3.50
2018-08-11T04:23:56.812Z,3.03
2018-08-11T04:26:31.520Z,2.93
2018-08-11T04:29:06.305Z,3.00
2018-08-11T04:31:41.131Z,2.93
2018-08-11T04:34:16.125Z,2.90
2018-08-11T04:36:50.745Z,2.73
2018-08-11T04:39:25.166Z,2.87
2018-08-11T04:42:00.380Z,3.17
2018-08-11T04:44:34.997Z,2.70
2018-08-11T04:47:09.864Z,2.50
2018-08-11T04:49:44.172Z,3.07
2018-08-11T04:52:18.872Z,2.80
2018-08-11T04:54:53.326Z,3.10
2018-08-11T04:57:27.712Z,3.53
2018-08-11T05:00:02.472Z,2.67
2018-08-11T05:02:36.801Z,3.20
2018-08-11T05:05:11.249Z,2.80
2018-08-11T05:07:45.672Z,3.10
2018-08-11T05:10:20.028Z,3.40
2018-08-11T05:12:54.499Z,3.50
2018-08-11T05:15:28.911Z,3.93
2018-08-11T05:18:03.910Z,3.20
2018-08-11T05:20:38.469Z,3.20
2018-08-11T05:23:12.909Z,3.13
2018-08-11T05:25:47.532Z,2.80
2018-08-11T05:28:22.644Z,3.00
2018-08-11T05:30:57.608Z,3.47
2018-08-11T05:33:32.011Z,3.43
2018-08-11T05:36:07.659Z,2.93
2018-08-11T05:38:41.960Z,2.73
2018-08-11T05:41:16.399Z,3.10
2018-08-11T05:43:51.235Z,3.20
2018-08-11T05:46:25.571Z,2.90
2018-08-11T05:48:59.887Z,3.00
2018-08-11T05:51:34.408Z,3.00
2018-08-11T05:54:09.041Z,6.73
2018-08-11T05:56:43.767Z,2.60
2018-08-11T05:59:18.528Z,2.67
2018-08-11T06:01:53.911Z,2.90
2018-08-11T06:04:28.241Z,2.97
2018-08-11T06:07:02.976Z,3.83
2018-08-11T06:09:37.586Z,2.60
2018-08-11T06:12:11.971Z,3.30
2018-08-11T06:14:46.424Z,2.33
2018-08-11T06:17:20.888Z,2.50
2018-08-11T06:19:55.496Z,2.93
2018-08-11T06:22:30.520Z,4.70
2018-08-11T06:25:06.744Z,2.77
2018-08-11T06:27:41.232Z,2.43
2018-08-11T06:30:15.912Z,2.50
2018-08-11T06:32:50.596Z,3.07
2018-08-11T06:35:25.500Z,2.40
2018-08-11T06:37:59.866Z,2.67
2018-08-11T06:40:34.647Z,2.60
2018-08-11T06:43:10.140Z,2.30
2018-08-11T06:45:44.486Z,2.53
2018-08-11T06:48:19.764Z,2.50
2018-08-11T06:50:54.150Z,2.43
2018-08-11T06:53:28.844Z,3.50
2018-08-11T06:56:03.348Z,2.67
2018-08-11T06:58:37.838Z,2.47
2018-08-11T07:01:12.187Z,3.40
2018-08-11T07:03:46.788Z,3.77
2018-08-11T07:06:21.347Z,3.03
2018-08-11T07:08:56.001Z,3.47
2018-08-11T07:11:30.427Z,3.57
2018-08-11T07:14:06.900Z,3.27
2018-08-11T07:16:41.395Z,2.43
2018-08-11T07:19:16.028Z,3.03
2018-08-11T07:21:51.021Z,3.33
2018-08-11T07:24:25.934Z,3.33
2018-08-11T07:27:00.935Z,2.73
2018-08-11T07:29:35.688Z,3.00
2018-08-11T07:32:10.764Z,2.87
2018-08-11T07:34:45.520Z,4.00
2018-08-11T07:37:20.127Z,2.60
2018-08-11T07:39:54.767Z,4.43
2018-08-11T07:42:29.523Z,3.10
2018-08-11T07:45:04.319Z,3.73
2018-08-11T07:47:39.370Z,4.03
2018-08-11T07:50:25.220Z,4.10
2018-08-11T07:52:59.788Z,2.93
2018-08-11T07:55:34.614Z,2.60
2018-08-11T07:58:09.313Z,3.20
2018-08-11T08:00:44.804Z,3.00
2018-08-11T08:03:19.636Z,2.87
2018-08-11T08:05:54.309Z,3.23
2018-08-11T08:08:29.127Z,6.00
2018-08-11T08:11:03.412Z,3.50
2018-08-11T08:13:38.469Z,3.30
2018-08-11T08:16:13.185Z,3.40
2018-08-11T08:18:47.482Z,3.77
2018-08-11T08:21:22.352Z,3.63
2018-08-11T08:23:57.077Z,3.33
2018-08-11T08:26:32.475Z,2.83
2018-08-11T08:29:07.447Z,3.57
2018-08-11T08:31:42.616Z,3.23
2018-08-11T08:34:17.308Z,4.93
2018-08-11T08:36:52.172Z,5.00
2018-08-11T08:39:26.675Z,4.30
2018-08-11T08:42:01.453Z,3.90
2018-08-11T08:44:35.957Z,4.37
2018-08-11T08:47:10.821Z,3.33
2018-08-11T08:49:45.314Z,3.90
2018-08-11T08:52:19.803Z,3.30
2018-08-11T08:54:54.227Z,3.83
2018-08-11T08:57:28.868Z,2.97
2018-08-11T09:00:03.659Z,2.50
2018-08-11T09:02:38.652Z,2.87
2018-08-11T09:05:13.622Z,3.10
2018-08-11T09:07:47.967Z,2.20
2018-08-11T09:10:22.428Z,3.20
2018-08-11T09:12:56.841Z,1.97
2018-08-11T09:15:31.704Z,2.30
2018-08-11T09:18:06.085Z,2.80
2018-08-11T09:20:40.373Z,4.03
2018-08-11T09:23:15.734Z,4.33
2018-08-11T09:25:50.451Z,3.10
2018-08-11T09:28:24.859Z,2.43
2018-08-11T09:30:59.305Z,2.13
2018-08-11T09:33:34.509Z,2.93
2018-08-11T09:36:09.640Z,2.50
2018-08-11T09:38:44.368Z,2.63
2018-08-11T09:41:19.224Z,3.43
2018-08-11T09:47:09.036Z,1.93
2018-08-11T09:49:46.174Z,3.00
2018-08-11T09:52:23.687Z,2.93
2018-08-11T09:54:58.645Z,2.23
2018-08-11T09:57:32.939Z,2.97
2018-08-11T10:00:09.493Z,2.60
2018-08-11T10:02:44.924Z,2.77
2018-08-11T10:05:23.253Z,3.03
2018-08-11T10:07:57.801Z,2.07
2018-08-11T10:10:32.217Z,2.97
2018-08-11T10:13:07.692Z,3.77
2018-08-11T10:15:42.724Z,2.80
2018-08-11T10:18:17.332Z,2.47
2018-08-11T10:20:52.121Z,3.73
2018-08-11T10:23:27.119Z,3.70
2018-08-11T10:26:02.363Z,3.03
2018-08-11T10:28:37.363Z,2.10
2018-08-11T10:31:12.691Z,2.33
2018-08-11T10:33:47.519Z,2.37
2018-08-11T10:36:22.044Z,3.30
2018-08-11T10:38:57.500Z,1.83
2018-08-11T10:41:32.227Z,1.60
2018-08-11T10:44:07.732Z,1.73
2018-08-11T10:46:42.636Z,2.00
2018-08-11T10:49:17.089Z,2.87
2018-08-11T10:51:51.872Z,2.30
2018-08-11T10:54:26.256Z,1.30
2018-08-11T10:57:01.035Z,2.87
2018-08-11T10:59:35.696Z,2.10
2018-08-11T11:02:10.700Z,1.97
2018-08-11T11:04:45.184Z,4.07
2018-08-11T11:07:20.227Z,2.07
2018-08-11T11:09:55.484Z,2.07
2018-08-11T11:12:30.059Z,2.20
2018-08-11T11:15:05.942Z,1.70
2018-08-11T11:17:41.335Z,1.73
2018-08-11T11:20:15.999Z,1.70
2018-08-11T11:22:50.394Z,3.93
2018-08-11T11:25:56.519Z,2.33
2018-08-11T11:28:34.250Z,1.83
2018-08-11T11:31:08.997Z,2.00
2018-08-11T11:39:48.369Z,2.20
2018-08-11T11:42:23.223Z,3.47
2018-08-11T11:44:57.649Z,2.60
2018-08-11T11:47:31.928Z,1.70
2018-08-11T11:50:06.452Z,2.77
2018-08-11T11:52:41.344Z,2.00
2018-08-11T11:55:16.171Z,1.60
2018-08-11T11:57:51.063Z,2.83
2018-08-11T12:00:25.686Z,2.73
2018-08-11T12:03:01.188Z,2.90
2018-08-11T12:05:36.235Z,1.57
2018-08-11T12:08:11.395Z,4.13
2018-08-11T12:10:46.221Z,3.20
2018-08-11T12:13:20.584Z,1.83
2018-08-11T12:15:54.964Z,1.87
2018-08-11T12:18:30.149Z,2.87
2018-08-11T12:21:04.428Z,2.90
2018-08-11T12:23:39.275Z,4.87
2018-08-11T12:26:14.468Z,2.87
2018-08-11T12:28:49.283Z,2.83
2018-08-11T12:31:24.128Z,3.07
2018-08-11T12:33:58.575Z,2.93
2018-08-11T12:36:33.820Z,3.23
2018-08-11T12:39:09.605Z,3.00
2018-08-11T12:41:44.789Z,2.50
2018-08-11T12:44:23.183Z,3.13
2018-08-11T12:47:10.792Z,1.70
2018-08-11T12:49:45.307Z,3.97
2018-08-11T12:52:23.899Z,6.30
2018-08-11T12:54:59.068Z,2.07
2018-08-11T12:57:34.809Z,2.80
2018-08-11T13:00:11.631Z,2.93
2018-08-11T13:02:46.615Z,2.37
2018-08-11T13:05:21.635Z,2.33
2018-08-11T13:07:56.132Z,4.10
2018-08-11T13:10:30.785Z,2.60
2018-08-11T13:13:05.492Z,1.63
2018-08-11T13:15:42.019Z,2.97
2018-08-11T13:18:16.556Z,1.87
2018-08-11T13:20:51.671Z,2.63
2018-08-11T13:23:25.973Z,3.03
2018-08-11T13:26:00.588Z,2.50
2018-08-11T13:28:34.979Z,3.13
2018-08-11T13:31:09.875Z,2.23
2018-08-11T13:33:44.443Z,2.07
2018-08-11T13:36:18.879Z,1.60
2018-08-11T13:38:53.188Z,3.57
2018-08-11T13:41:32.142Z,2.03
2018-08-11T13:44:06.932Z,1.83
2018-08-11T13:46:41.440Z,1.57
2018-08-11T13:49:16.093Z,1.77
2018-08-11T13:51:50.641Z,1.77
2018-08-11T13:54:25.077Z,1.63
2018-08-11T13:56:59.872Z,2.43
2018-08-11T13:59:34.348Z,1.67
2018-08-11T14:02:08.848Z,2.93
2018-08-11T14:04:43.232Z,1.87
2018-08-11T14:07:17.943Z,2.53
2018-08-11T14:09:52.920Z,1.43
2018-08-11T14:12:27.287Z,1.30
2018-08-11T14:15:01.807Z,1.80
2018-08-11T14:17:36.581Z,4.90
2018-08-11T14:20:11.716Z,4.20
2018-08-11T14:22:46.644Z,1.67
2018-08-11T14:25:21.373Z,1.63
2018-08-11T14:27:56.283Z,3.93
2018-08-11T14:30:30.769Z,2.27
2018-08-11T14:33:05.224Z,2.40
2018-08-11T14:35:39.732Z,1.57
2018-08-11T14:38:14.588Z,1.57
2018-08-11T14:40:49.405Z,2.13
2018-08-11T14:43:23.820Z,2.23
2018-08-11T14:45:58.101Z,1.87
2018-08-11T14:48:32.499Z,2.40
2018-08-11T14:51:07.189Z,3.50
2018-08-11T14:53:41.719Z,1.60
2018-08-11T14:56:16.368Z,3.17
2018-08-11T14:58:51.630Z,2.93
2018-08-11T15:01:26.428Z,2.00
2018-08-11T15:04:01.144Z,3.17
2018-08-11T15:06:35.848Z,3.30
2018-08-11T15:09:11.256Z,1.70
2018-08-11T15:11:45.558Z,3.33
2018-08-11T15:14:20.424Z,1.73
2018-08-11T15:16:55.212Z,1.70
2018-08-11T15:19:30.044Z,1.73
2018-08-11T15:22:04.372Z,2.53
2018-08-11T15:24:38.779Z,3.00
2018-08-11T15:27:13.421Z,1.43
2018-08-11T15:29:48.648Z,1.60
2018-08-11T15:32:23.465Z,1.57
2018-08-11T15:34:58.213Z,1.13
2018-08-11T15:37:32.664Z,2.63
2018-08-11T15:40:07.880Z,2.70
2018-08-11T15:42:42.263Z,1.30
2018-08-11T15:45:17.228Z,1.33
2018-08-11T15:47:52.082Z,1.70
2018-08-11T15:50:26.801Z,1.40
2018-08-11T15:53:01.092Z,1.30
2018-08-11T15:55:35.523Z,1.00
2018-08-11T15:58:10.512Z,1.13
2018-08-11T16:00:45.204Z,1.60
2018-08-11T16:03:20.399Z,1.33
2018-08-11T16:05:54.816Z,1.73
2018-08-11T16:08:29.232Z,1.20
2018-08-11T16:11:03.871Z,1.67
2018-08-11T16:13:38.147Z,1.70
2018-08-11T16:16:12.576Z,2.63
2018-08-11T16:18:47.457Z,1.43
2018-08-11T16:21:21.835Z,2.17
2018-08-11T16:23:56.461Z,2.23
2018-08-11T16:26:30.909Z,2.87
2018-08-11T16:29:06.178Z,1.97
2018-08-11T16:31:40.828Z,1.20
2018-08-11T16:34:15.684Z,1.47
2018-08-11T16:36:50.194Z,1.80
2018-08-11T16:39:25.120Z,1.93
2018-08-11T16:41:59.833Z,3.50
2018-08-11T16:44:34.833Z,1.50
2018-08-11T16:47:09.312Z,1.50
2018-08-11T16:49:44.115Z,1.30
2018-08-11T16:52:18.597Z,1.60
2018-08-11T16:54:53.065Z,1.20
2018-08-11T16:57:27.383Z,3.07
2018-08-11T17:00:02.241Z,3.60
2018-08-11T17:02:37.177Z,2.20
2018-08-11T17:05:12.296Z,1.57
2018-08-11T17:07:47.124Z,2.20
2018-08-11T17:10:21.681Z,1.77
2018-08-11T17:12:56.150Z,2.23
2018-08-11T17:15:30.923Z,2.00
2018-08-11T17:18:05.389Z,3.03
2018-08-11T17:20:39.877Z,1.13
2018-08-11T17:23:14.627Z,1.60
2018-08-11T17:25:50.386Z,1.50
2018-08-11T17:28:24.865Z,2.03
2018-08-11T17:30:59.488Z,2.70
2018-08-11T17:33:33.782Z,1.33
2018-08-11T17:36:08.944Z,2.43
2018-08-11T17:38:43.947Z,1.50
2018-08-11T17:41:19.536Z,2.03
2018-08-11T17:43:54.264Z,3.20
2018-08-11T17:46:28.818Z,2.30
2018-08-11T17:49:03.585Z,2.53
2018-08-11T17:51:38.727Z,2.27
2018-08-11T17:54:13.436Z,3.93
2018-08-11T17:56:47.960Z,2.87
2018-08-11T17:59:22.449Z,4.20
2018-08-11T18:01:57.152Z,1.93
2018-08-11T18:04:31.870Z,2.63
2018-08-11T18:07:06.315Z,1.50
2018-08-11T18:09:40.692Z,1.63
2018-08-11T18:12:15.724Z,5.83
2018-08-11T18:14:50.244Z,1.77
2018-08-11T18:17:24.956Z,1.70
2018-08-11T18:20:00.121Z,1.80
2018-08-11T18:22:34.488Z,2.83
2018-08-11T18:25:09.348Z,2.03
2018-08-11T18:27:44.289Z,3.10
2018-08-11T18:30:19.361Z,2.60
2018-08-11T18:32:54.032Z,3.77
2018-08-11T18:35:28.608Z,3.27
2018-08-11T18:38:03.409Z,4.50
2018-08-11T18:40:37.973Z,3.63
2018-08-11T18:43:12.867Z,3.47
2018-08-11T18:45:47.192Z,2.97
2018-08-11T18:48:22.169Z,4.67
2018-08-11T18:50:56.786Z,2.43
2018-08-11T18:53:31.796Z,2.40
2018-08-11T18:56:06.276Z,3.73
2018-08-11T18:58:41.128Z,2.50
2018-08-11T19:01:16.106Z,2.17
2018-08-11T19:03:51.609Z,2.10
2018-08-11T19:06:26.510Z,7.57
2018-08-11T19:09:01.216Z,5.43
2018-08-11T19:11:35.555Z,2.97
2018-08-11T19:14:10.736Z,3.50
2018-08-11T19:16:45.355Z,4.57
2018-08-11T19:19:19.799Z,3.27
2018-08-11T19:21:54.824Z,5.00
2018-08-11T19:24:29.435Z,2.83
2018-08-11T19:27:04.189Z,2.67
2018-08-11T19:29:38.707Z,2.80
2018-08-11T19:32:13.388Z,3.13
2018-08-11T19:34:47.859Z,3.13
2018-08-11T19:37:22.324Z,2.57
2018-08-11T19:39:56.735Z,4.40
2018-08-11T19:42:31.200Z,2.90
2018-08-11T19:45:07.760Z,3.47
2018-08-11T19:47:42.892Z,4.30
2018-08-11T19:50:17.700Z,2.93
2018-08-11T19:52:52.723Z,4.70
2018-08-11T19:55:27.438Z,4.23
2018-08-11T19:58:02.484Z,5.60
2018-08-11T20:00:36.973Z,4.93
2018-08-11T20:03:11.528Z,3.30
2018-08-11T20:05:46.417Z,3.60
2018-08-11T20:08:21.256Z,3.20
2018-08-11T20:10:56.033Z,3.20
2018-08-11T20:13:31.369Z,3.57
2018-08-11T20:16:06.661Z,3.53
2018-08-11T20:18:41.356Z,3.93
2018-08-11T20:21:16.072Z,3.43
2018-08-11T20:23:50.932Z,4.43
2018-08-11T20:26:25.248Z,5.47
2018-08-11T20:28:59.664Z,3.73
2018-08-11T20:31:34.112Z,4.07
2018-08-11T20:34:09.048Z,3.90
2018-08-11T20:36:43.444Z,5.40
2018-08-11T20:39:18.500Z,4.67
2018-08-11T20:41:53.331Z,4.43
2018-08-11T20:44:27.756Z,6.27
2018-08-11T20:47:02.184Z,5.13
2018-08-11T20:49:36.851Z,5.13
2018-08-11T20:52:11.748Z,4.97
2018-08-11T20:54:46.572Z,6.40
2018-08-11T20:57:21.103Z,4.47
2018-08-11T20:59:55.558Z,5.90
2018-08-11T21:02:29.969Z,4.60
2018-08-11T21:05:06.915Z,4.63
2018-08-11T21:07:41.776Z,4.87
2018-08-11T21:10:16.552Z,4.70
2018-08-11T21:12:50.959Z,4.97
2018-08-11T21:15:25.976Z,4.37
2018-08-11T21:18:01.372Z,5.67
2018-08-11T21:20:36.216Z,5.37
2018-08-11T21:23:10.541Z,4.90
2018-08-11T21:25:44.965Z,4.70
2018-08-11T21:28:19.370Z,5.37
2018-08-11T21:30:54.129Z,4.10
2018-08-11T21:33:28.872Z,4.57
2018-08-11T21:36:04.080Z,5.20
2018-08-11T21:38:38.759Z,4.67
2018-08-11T21:41:13.856Z,3.93
2018-08-11T21:43:48.819Z,6.27
2018-08-11T21:46:23.587Z,4.23
2018-08-11T21:48:58.364Z,5.57
2018-08-11T21:51:33.073Z,4.33
2018-08-11T21:54:08.040Z,3.70
2018-08-11T21:56:42.926Z,4.00
2018-08-11T21:59:17.733Z,3.53
2018-08-11T22:01:52.501Z,3.50
2018-08-11T22:04:32.633Z,3.30
2018-08-11T22:07:08.371Z,3.73
2018-08-11T22:09:42.995Z,5.37
2018-08-11T22:12:17.744Z,4.60
2018-08-11T22:14:52.433Z,3.50
2018-08-11T22:17:26.952Z,3.63
2018-08-11T22:20:01.646Z,4.23
2018-08-11T22:22:36.004Z,4.37
2018-08-11T22:25:11.636Z,3.37
2018-08-11T22:27:46.424Z,4.33
2018-08-11T22:30:21.112Z,4.53
2018-08-11T22:32:55.471Z,4.87
2018-08-11T22:35:30.283Z,4.67
2018-08-11T22:38:04.775Z,3.53
2018-08-11T22:40:39.563Z,4.13
2018-08-11T22:43:14.068Z,3.93
2018-08-11T22:45:48.902Z,3.63
2018-08-11T22:48:23.764Z,3.80
2018-08-11T22:50:58.815Z,3.30
2018-08-11T22:53:33.436Z,4.10
2018-08-11T22:56:08.274Z,3.57
2018-08-11T22:58:42.751Z,4.00
2018-08-11T23:01:17.528Z,3.30
2018-08-11T23:03:52.336Z,3.50
2018-08-11T23:06:27.412Z,3.33
2018-08-11T23:09:02.904Z,3.40
2018-08-11T23:11:37.324Z,3.50
2018-08-11T23:14:11.840Z,3.70
2018-08-11T23:16:46.503Z,5.37
2018-08-11T23:19:21.008Z,3.37
2018-08-11T23:21:55.436Z,3.20
2018-08-11T23:24:30.252Z,4.93
2018-08-11T23:27:04.831Z,4.47
2018-08-11T23:29:39.602Z,3.53
2018-08-11T23:32:13.873Z,3.00
2018-08-11T23:34:48.284Z,2.90
2018-08-11T23:37:23.702Z,4.40
2018-08-11T23:39:58.620Z,3.27
2018-08-11T23:42:34.076Z,3.97
2018-08-11T23:45:11.144Z,3.40
2018-08-11T23:47:45.752Z,3.20
2018-08-11T23:50:20.147Z,3.17
2018-08-11T23:52:54.536Z,3.37
2018-08-11T23:55:29.000Z,3.50
2018-08-11T23:58:03.428Z,4.13
